createdAt,value
2023-01-30T00:02:21.150Z,7.23
2023-01-30T00:04:48.370Z,7.28
2023-01-30T00:07:15.506Z,7.31
2023-01-30T00:09:42.682Z,7.36
2023-01-30T00:12:09.883Z,7.39
2023-01-30T00:14:38.587Z,7.43
2023-01-30T00:17:05.741Z,7.50
2023-01-30T00:19:32.865Z,7.51
2023-01-30T00:22:00.263Z,7.54
2023-01-30T00:24:27.588Z,7.59
2023-01-30T00:26:54.863Z,7.57
2023-01-30T00:29:21.989Z,7.60
2023-01-30T00:31:50.643Z,7.65
2023-01-30T00:34:17.963Z,7.69
2023-01-30T00:36:47.715Z,7.68
2023-01-30T00:39:16.643Z,7.72
2023-01-30T00:41:43.763Z,7.73
2023-01-30T00:44:10.863Z,7.74
2023-01-30T00:46:38.087Z,7.87
2023-01-30T00:49:06.674Z,7.84
2023-01-30T00:51:33.823Z,7.83
2023-01-30T00:54:01.075Z,7.83
2023-01-30T00:56:28.422Z,7.85
2023-01-30T00:58:55.622Z,7.90
2023-01-30T01:01:22.790Z,7.90
2023-01-30T01:03:49.964Z,7.90
2023-01-30T01:06:18.591Z,7.91
2023-01-30T01:08:45.739Z,7.94
2023-01-30T01:11:12.870Z,7.96
2023-01-30T01:13:39.943Z,7.90
2023-01-30T01:16:07.306Z,7.91
2023-01-30T01:18:34.383Z,7.88
2023-01-30T01:21:01.545Z,7.85
2023-01-30T01:23:30.083Z,7.90
2023-01-30T01:26:01.627Z,7.88
2023-01-30T01:28:28.790Z,7.88
2023-01-30T01:30:56.000Z,7.88
2023-01-30T01:33:27.003Z,7.86
2023-01-30T01:35:55.984Z,7.90
2023-01-30T01:38:23.683Z,7.90
2023-01-30T01:40:52.266Z,7.86
2023-01-30T01:43:22.371Z,7.87
2023-01-30T01:45:55.887Z,7.89
2023-01-30T01:48:29.171Z,7.90
2023-01-30T01:51:01.784Z,7.92
2023-01-30T01:53:34.805Z,7.93
2023-01-30T01:56:06.026Z,7.91
2023-01-30T01:58:42.307Z,7.91
2023-01-30T02:01:09.413Z,7.92
2023-01-30T02:03:42.852Z,7.93
2023-01-30T02:06:14.015Z,7.95
2023-01-30T02:08:47.456Z,7.98
2023-01-30T02:11:27.374Z,8.00
2023-01-30T02:13:57.098Z,8.08
2023-01-30T02:16:24.340Z,8.04
2023-01-30T02:18:52.792Z,8.07
2023-01-30T02:21:51.568Z,8.03
2023-01-30T02:24:43.160Z,8.01
2023-01-30T02:27:48.583Z,8.02
2023-01-30T02:30:52.248Z,8.08
2023-01-30T02:33:34.506Z,8.05
2023-01-30T02:36:14.459Z,8.12
2023-01-30T02:38:54.162Z,8.03
2023-01-30T02:41:34.879Z,8.02
2023-01-30T02:44:06.741Z,8.03
2023-01-30T02:46:45.292Z,8.04
2023-01-30T02:49:20.966Z,8.02
2023-01-30T02:51:51.880Z,8.09
2023-01-30T02:54:19.123Z,8.13
2023-01-30T02:56:49.488Z,8.14
2023-01-30T02:59:24.399Z,8.16
2023-01-30T03:02:30.416Z,8.12
2023-01-30T03:05:21.166Z,8.17
2023-01-30T03:07:58.552Z,8.09
2023-01-30T03:10:37.725Z,8.05
2023-01-30T03:13:14.997Z,8.02
2023-01-30T03:15:50.168Z,8.08
2023-01-30T03:18:19.846Z,8.08
2023-01-30T03:20:47.649Z,8.10
2023-01-30T03:23:14.794Z,8.01
2023-01-30T03:25:46.389Z,8.01
2023-01-30T03:28:18.109Z,8.15
2023-01-30T03:30:45.267Z,8.07
2023-01-30T03:33:12.445Z,8.12
2023-01-30T03:35:41.400Z,8.19
2023-01-30T03:38:08.707Z,8.23
2023-01-30T03:40:35.925Z,8.62
2023-01-30T03:43:03.156Z,8.75
2023-01-30T03:45:30.273Z,8.78
2023-01-30T03:47:57.407Z,9.14
2023-01-30T03:50:24.665Z,9.28
2023-01-30T03:52:54.026Z,9.36
2023-01-30T03:55:21.241Z,9.54
2023-01-30T03:57:48.368Z,9.65
2023-01-30T04:00:16.771Z,9.73
2023-01-30T04:02:44.556Z,9.74
2023-01-30T04:05:11.648Z,9.77
2023-01-30T04:07:38.747Z,9.96
2023-01-30T04:10:08.576Z,9.89
2023-01-30T04:12:35.744Z,9.88
2023-01-30T04:15:02.845Z,9.86
2023-01-30T04:17:30.045Z,9.92
2023-01-30T04:19:57.129Z,9.85
2023-01-30T04:22:24.453Z,9.86
2023-01-30T04:24:51.592Z,9.89
2023-01-30T04:27:20.207Z,9.88
2023-01-30T04:29:47.284Z,9.89
2023-01-30T04:32:14.347Z,9.91
2023-01-30T04:34:41.506Z,9.86
2023-01-30T04:37:08.688Z,9.76
2023-01-30T04:39:35.987Z,9.77
2023-01-30T04:42:03.185Z,9.77
2023-01-30T04:44:31.830Z,9.81
2023-01-30T04:46:59.039Z,9.89
2023-01-30T04:49:26.367Z,9.90
2023-01-30T04:51:53.491Z,9.95
2023-01-30T04:54:21.004Z,9.78
2023-01-30T04:56:48.105Z,9.80
2023-01-30T04:59:15.709Z,9.71
2023-01-30T05:01:44.290Z,9.80
2023-01-30T05:04:11.785Z,9.85
2023-01-30T05:06:39.005Z,9.89
2023-01-30T05:09:07.145Z,9.83
2023-01-30T05:11:34.890Z,9.80
2023-01-30T05:14:02.085Z,9.65
2023-01-30T05:16:30.683Z,9.54
2023-01-30T05:18:59.311Z,9.57
2023-01-30T05:21:28.608Z,9.67
2023-01-30T05:23:56.809Z,9.60
2023-01-30T05:26:24.476Z,9.66
2023-01-30T05:28:53.203Z,9.59
2023-01-30T05:31:20.517Z,9.46
2023-01-30T05:33:50.156Z,9.65
2023-01-30T05:36:21.652Z,9.62
2023-01-30T05:38:48.906Z,9.64
2023-01-30T05:41:17.299Z,9.59
2023-01-30T05:43:48.785Z,9.81
2023-01-30T05:46:15.953Z,9.82
2023-01-30T05:48:43.104Z,9.61
2023-01-30T05:51:18.684Z,9.60
2023-01-30T05:53:46.545Z,9.50
2023-01-30T05:56:13.685Z,9.46
2023-01-30T05:58:41.567Z,9.56
2023-01-30T06:01:12.809Z,9.78
2023-01-30T06:03:40.158Z,9.72
2023-01-30T06:06:08.224Z,9.61
2023-01-30T06:08:36.940Z,9.71
2023-01-30T06:11:07.030Z,9.66
2023-01-30T06:13:34.896Z,9.63
2023-01-30T06:16:02.113Z,9.72
2023-01-30T06:18:29.507Z,9.49
2023-01-30T06:20:57.150Z,9.37
2023-01-30T06:23:24.608Z,9.40
2023-01-30T06:25:54.082Z,9.39
2023-01-30T06:28:23.027Z,9.37
2023-01-30T06:30:50.676Z,9.22
2023-01-30T06:33:18.525Z,9.34
2023-01-30T06:35:48.545Z,9.43
2023-01-30T06:38:15.685Z,9.56
2023-01-30T06:40:46.216Z,9.33
2023-01-30T06:43:15.999Z,9.29
2023-01-30T06:45:43.920Z,9.16
2023-01-30T06:48:11.909Z,9.22
2023-01-30T06:50:39.216Z,9.22
2023-01-30T06:53:08.602Z,9.09
2023-01-30T06:55:36.257Z,9.06
2023-01-30T06:58:06.311Z,9.08
2023-01-30T07:00:36.243Z,9.24
2023-01-30T07:03:03.759Z,9.43
2023-01-30T07:05:31.100Z,9.39
2023-01-30T07:07:58.459Z,9.40
2023-01-30T07:10:25.720Z,9.31
2023-01-30T07:12:53.039Z,9.34
2023-01-30T07:15:20.720Z,9.20
2023-01-30T07:17:49.701Z,9.33
2023-01-30T07:20:17.340Z,9.42
2023-01-30T07:22:50.809Z,9.35
2023-01-30T07:25:18.693Z,9.41
2023-01-30T07:27:50.880Z,9.34
2023-01-30T07:30:18.477Z,9.53
2023-01-30T07:32:51.679Z,9.39
2023-01-30T07:35:19.465Z,9.32
2023-01-30T07:37:47.761Z,9.31
2023-01-30T07:40:15.461Z,9.21
2023-01-30T07:42:42.908Z,9.29
2023-01-30T07:45:11.248Z,9.28
2023-01-30T07:47:38.549Z,9.37
2023-01-30T07:50:09.103Z,9.35
2023-01-30T07:52:36.245Z,9.51
2023-01-30T07:55:03.483Z,9.40
2023-01-30T07:57:30.680Z,9.52
2023-01-30T07:59:57.864Z,9.36
2023-01-30T08:02:25.100Z,9.34
2023-01-30T08:04:52.434Z,9.36
2023-01-30T08:07:21.101Z,9.26
2023-01-30T08:09:48.281Z,9.29
2023-01-30T08:12:15.400Z,9.25
2023-01-30T08:14:42.548Z,9.54
2023-01-30T08:17:09.822Z,9.51
2023-01-30T08:19:36.959Z,9.33
2023-01-30T08:22:04.140Z,9.44
2023-01-30T08:24:32.820Z,9.46
2023-01-30T08:27:00.040Z,9.44
2023-01-30T08:29:27.204Z,9.58
2023-01-30T08:31:58.266Z,9.53
2023-01-30T08:34:25.504Z,9.63
2023-01-30T08:36:53.064Z,9.63
2023-01-30T08:39:20.519Z,9.64
2023-01-30T08:41:49.219Z,9.60
2023-01-30T08:44:16.419Z,9.63
2023-01-30T08:46:43.609Z,9.53
2023-01-30T08:49:11.197Z,9.50
2023-01-30T08:51:38.739Z,9.57
2023-01-30T08:54:06.120Z,9.80
2023-01-30T08:56:33.479Z,10.93
2023-01-30T08:59:02.538Z,11.53
2023-01-30T09:01:29.802Z,12.13
2023-01-30T09:03:57.688Z,12.45
2023-01-30T09:06:26.276Z,12.53
2023-01-30T09:08:53.748Z,12.87
2023-01-30T09:11:20.939Z,12.72
2023-01-30T09:13:49.600Z,12.79
2023-01-30T09:16:18.681Z,12.56
2023-01-30T09:18:45.979Z,11.89
2023-01-30T09:21:14.088Z,11.61
2023-01-30T09:23:41.882Z,11.40
2023-01-30T09:26:09.061Z,11.05
2023-01-30T09:28:36.338Z,10.91
2023-01-30T09:31:04.145Z,10.82
2023-01-30T09:33:32.948Z,10.72
2023-01-30T09:36:00.177Z,10.62
2023-01-30T09:38:27.364Z,10.58
2023-01-30T09:41:31.487Z,10.62
2023-01-30T09:44:22.699Z,10.65
2023-01-30T09:46:58.300Z,10.62
2023-01-30T09:49:43.335Z,10.60
2023-01-30T09:52:27.351Z,10.60
2023-01-30T09:55:02.703Z,10.55
2023-01-30T09:57:30.104Z,10.54
2023-01-30T10:00:06.384Z,10.72
2023-01-30T10:02:47.801Z,11.09
2023-01-30T10:05:17.012Z,11.67
2023-01-30T10:08:09.682Z,11.90
2023-01-30T10:10:55.056Z,12.54
2023-01-30T10:13:50.744Z,12.78
2023-01-30T10:16:27.285Z,12.89
2023-01-30T10:19:35.171Z,13.15
2023-01-30T10:22:17.841Z,12.83
2023-01-30T10:24:59.304Z,12.97
2023-01-30T10:27:31.529Z,13.06
2023-01-30T10:30:04.847Z,13.02
2023-01-30T10:32:41.925Z,12.88
2023-01-30T10:35:19.279Z,12.61
2023-01-30T10:37:58.418Z,12.37
2023-01-30T10:40:33.845Z,12.04
2023-01-30T10:43:12.363Z,11.84
2023-01-30T10:45:50.551Z,12.17
2023-01-30T10:48:45.982Z,12.23
2023-01-30T10:51:25.659Z,12.61
2023-01-30T10:54:02.835Z,12.87
2023-01-30T10:56:39.883Z,13.20
2023-01-30T10:59:24.960Z,13.34
2023-01-30T11:02:02.901Z,12.86
2023-01-30T11:04:37.512Z,12.63
2023-01-30T11:07:05.104Z,12.94
2023-01-30T11:09:42.199Z,12.98
2023-01-30T11:12:09.461Z,13.19
2023-01-30T11:14:54.253Z,13.16
2023-01-30T11:17:30.428Z,13.09
2023-01-30T11:20:04.978Z,13.24
2023-01-30T11:22:35.741Z,13.25
2023-01-30T11:25:07.367Z,13.03
2023-01-30T11:27:35.442Z,13.10
2023-01-30T11:30:13.967Z,13.42
2023-01-30T11:32:43.701Z,13.02
2023-01-30T11:35:29.970Z,12.43
2023-01-30T11:38:13.002Z,12.61
2023-01-30T11:40:41.823Z,12.43
2023-01-30T11:43:13.338Z,12.56
2023-01-30T11:45:45.417Z,12.64
2023-01-30T11:48:33.260Z,12.66
2023-01-30T11:51:09.557Z,12.53
2023-01-30T11:53:41.657Z,12.76
2023-01-30T11:56:19.346Z,12.85
2023-01-30T11:58:56.964Z,13.08
2023-01-30T12:01:27.165Z,12.98
2023-01-30T12:03:56.818Z,13.08
2023-01-30T12:06:29.779Z,12.90
2023-01-30T12:08:58.712Z,12.98
2023-01-30T12:11:43.123Z,12.73
2023-01-30T12:14:25.735Z,12.91
2023-01-30T12:17:12.338Z,12.67
2023-01-30T12:19:52.571Z,13.09
2023-01-30T12:22:29.143Z,13.20
2023-01-30T12:25:00.188Z,13.39
2023-01-30T12:27:47.515Z,13.25
2023-01-30T12:30:30.564Z,13.46
2023-01-30T12:35:59.946Z,13.20
2023-01-30T12:38:41.677Z,12.73
2023-01-30T12:41:28.431Z,13.03
2023-01-30T12:44:19.030Z,13.24
2023-01-30T12:47:07.749Z,13.31
2023-01-30T12:50:02.636Z,13.35
2023-01-30T12:52:46.070Z,13.06
2023-01-30T12:55:30.784Z,13.28
2023-01-30T12:58:04.356Z,13.23
2023-01-30T13:00:50.926Z,13.04
2023-01-30T13:03:30.780Z,13.14
2023-01-30T13:06:11.039Z,13.15
2023-01-30T13:08:52.724Z,13.07
2023-01-30T13:11:41.781Z,12.71
2023-01-30T13:14:21.243Z,12.45
2023-01-30T13:17:24.699Z,12.05
2023-01-30T13:20:02.088Z,12.05
2023-01-30T13:22:38.634Z,12.39
2023-01-30T13:25:21.699Z,12.41
2023-01-30T13:27:55.813Z,12.43
2023-01-30T13:30:24.390Z,12.47
2023-01-30T13:32:58.710Z,12.18
2023-01-30T13:35:32.523Z,12.36
2023-01-30T13:38:03.391Z,12.35
2023-01-30T13:40:38.577Z,12.51
2023-01-30T13:43:16.391Z,12.55
2023-01-30T13:45:47.185Z,12.37
2023-01-30T13:48:33.479Z,12.15
2023-01-30T13:51:31.252Z,12.20
2023-01-30T13:54:06.930Z,12.10
2023-01-30T13:56:44.634Z,11.82
2023-01-30T13:59:22.796Z,11.78
2023-01-30T14:02:18.660Z,11.59
2023-01-30T14:04:52.774Z,11.72
2023-01-30T14:07:30.055Z,11.79
2023-01-30T14:10:14.473Z,11.76
2023-01-30T14:12:44.952Z,12.29
2023-01-30T14:15:29.939Z,14.81
2023-01-30T14:18:03.171Z,15.72
2023-01-30T14:20:35.420Z,16.27
2023-01-30T14:23:14.724Z,16.89
2023-01-30T14:25:48.737Z,16.06
2023-01-30T14:28:49.213Z,14.97
2023-01-30T14:31:47.360Z,14.32
2023-01-30T14:34:40.096Z,13.74
2023-01-30T14:37:30.332Z,13.11
2023-01-30T14:39:58.851Z,12.84
2023-01-30T14:42:28.232Z,12.56
2023-01-30T14:45:04.137Z,12.24
2023-01-30T14:47:43.398Z,12.17
2023-01-30T14:50:22.307Z,12.10
2023-01-30T14:52:56.815Z,12.10
2023-01-30T14:55:27.250Z,11.96
2023-01-30T14:57:59.077Z,11.94
2023-01-30T15:00:30.950Z,11.14
2023-01-30T15:03:03.470Z,11.60
2023-01-30T15:05:39.068Z,11.64
2023-01-30T15:08:16.133Z,11.60
2023-01-30T15:11:12.594Z,11.51
2023-01-30T15:13:48.839Z,11.50
2023-01-30T15:16:45.835Z,11.46
2023-01-30T15:19:46.332Z,11.40
2023-01-30T15:22:26.171Z,11.38
2023-01-30T15:25:33.652Z,11.22
2023-01-30T15:28:16.873Z,11.29
2023-01-30T15:30:55.669Z,11.39
2023-01-30T15:33:31.003Z,11.41
2023-01-30T15:35:59.530Z,11.34
2023-01-30T15:38:29.890Z,11.20
2023-01-30T15:41:01.878Z,11.39
2023-01-30T15:44:00.351Z,11.29
2023-01-30T15:46:42.453Z,11.41
2023-01-30T15:49:38.847Z,11.48
2023-01-30T15:52:14.981Z,11.36
2023-01-30T15:54:49.903Z,11.43
2023-01-30T15:57:29.779Z,11.47
2023-01-30T15:59:58.704Z,11.40
2023-01-30T16:02:31.586Z,11.39
2023-01-30T16:05:07.371Z,11.37
2023-01-30T16:07:34.558Z,11.35
2023-01-30T16:10:08.836Z,11.29
2023-01-30T16:12:37.477Z,11.21
2023-01-30T16:15:18.861Z,11.19
2023-01-30T16:17:59.036Z,11.19
2023-01-30T16:20:26.609Z,11.12
2023-01-30T16:22:54.374Z,11.13
2023-01-30T16:25:26.596Z,11.10
2023-01-30T16:27:55.541Z,11.05
2023-01-30T16:30:28.991Z,11.01
2023-01-30T16:32:57.328Z,10.96
2023-01-30T16:35:32.631Z,10.95
2023-01-30T16:38:02.186Z,10.92
2023-01-30T16:40:31.740Z,10.87
2023-01-30T16:43:02.529Z,10.95
2023-01-30T16:46:24.885Z,10.92
2023-01-30T16:48:52.108Z,10.92
2023-01-30T16:51:23.141Z,10.94
2023-01-30T16:53:58.653Z,10.92
2023-01-30T16:56:27.623Z,10.86
2023-01-30T16:59:00.290Z,10.86
2023-01-30T17:01:40.603Z,10.76
2023-01-30T17:04:18.955Z,10.74
2023-01-30T17:06:52.915Z,10.76
2023-01-30T17:09:47.253Z,10.77
2023-01-30T17:12:38.037Z,10.77
2023-01-30T17:15:41.514Z,10.73
2023-01-30T17:18:10.131Z,10.68
2023-01-30T17:20:41.891Z,10.75
2023-01-30T17:23:17.307Z,10.72
2023-01-30T17:25:49.364Z,10.71
2023-01-30T17:28:20.027Z,10.73
2023-01-30T17:30:48.371Z,10.73
2023-01-30T17:33:17.131Z,10.69
2023-01-30T17:35:45.391Z,10.65
2023-01-30T17:38:12.628Z,10.59
2023-01-30T17:40:40.410Z,10.58
2023-01-30T17:43:07.553Z,10.55
2023-01-30T17:45:36.241Z,10.59
2023-01-30T17:48:03.451Z,10.57
2023-01-30T17:50:32.074Z,10.57
2023-01-30T17:52:59.180Z,10.53
2023-01-30T17:55:26.512Z,10.57
2023-01-30T17:57:53.682Z,10.58
2023-01-30T18:00:22.347Z,10.61
2023-01-30T18:02:50.675Z,10.58
2023-01-30T18:05:17.863Z,10.58
2023-01-30T18:07:46.489Z,10.56
2023-01-30T18:10:18.945Z,10.60
2023-01-30T18:12:46.873Z,10.59
2023-01-30T18:15:16.719Z,10.58
2023-01-30T18:17:47.748Z,10.56
2023-01-30T18:20:18.265Z,10.58
2023-01-30T18:22:47.577Z,10.54
2023-01-30T18:25:15.840Z,10.55
2023-01-30T18:27:44.882Z,10.57
2023-01-30T18:30:16.859Z,10.57
2023-01-30T18:32:52.385Z,10.58
2023-01-30T18:35:20.096Z,10.59
2023-01-30T18:37:49.233Z,10.58
2023-01-30T18:40:16.420Z,10.57
2023-01-30T18:42:43.606Z,10.49
2023-01-30T18:45:11.334Z,10.49
2023-01-30T18:47:38.576Z,10.49
2023-01-30T18:50:06.805Z,10.53
2023-01-30T18:52:34.182Z,10.53
2023-01-30T18:55:02.853Z,10.52
2023-01-30T18:57:30.024Z,10.55
2023-01-30T18:59:57.311Z,10.55
2023-01-30T19:02:24.573Z,10.54
2023-01-30T19:04:51.807Z,10.60
2023-01-30T19:07:18.968Z,10.59
2023-01-30T19:09:46.142Z,10.58
2023-01-30T19:12:15.063Z,10.64
2023-01-30T19:14:42.225Z,10.59
2023-01-30T19:17:09.368Z,10.56
2023-01-30T19:19:36.658Z,10.50
2023-01-30T19:22:04.082Z,10.47
2023-01-30T19:24:31.284Z,10.41
2023-01-30T19:26:58.442Z,10.33
2023-01-30T19:29:27.181Z,10.32
2023-01-30T19:31:54.506Z,10.31
2023-01-30T19:34:21.944Z,10.28
2023-01-30T19:36:49.180Z,10.23
2023-01-30T19:39:16.502Z,10.28
2023-01-30T19:41:43.662Z,10.27
2023-01-30T19:44:12.608Z,10.26
2023-01-30T19:46:41.453Z,10.23
2023-01-30T19:49:10.967Z,10.21
2023-01-30T19:51:38.178Z,10.22
2023-01-30T19:54:09.122Z,10.20
2023-01-30T19:56:36.344Z,10.26
2023-01-30T19:59:04.268Z,10.29
2023-01-30T20:01:34.042Z,10.28
2023-01-30T20:04:03.872Z,10.29
2023-01-30T20:06:33.123Z,10.31
2023-01-30T20:09:03.901Z,10.33
2023-01-30T20:11:33.260Z,10.29
2023-01-30T20:14:00.682Z,10.28
2023-01-30T20:16:28.204Z,10.25
2023-01-30T20:18:57.505Z,10.26
2023-01-30T20:21:27.890Z,10.25
2023-01-30T20:23:56.187Z,10.24
2023-01-30T20:26:26.827Z,10.24
2023-01-30T20:28:56.443Z,10.23
2023-01-30T20:31:26.678Z,10.20
2023-01-30T20:33:54.541Z,10.17
2023-01-30T20:36:23.972Z,10.18
2023-01-30T20:38:54.063Z,10.16
2023-01-30T20:41:24.601Z,10.15
2023-01-30T20:43:54.503Z,10.09
2023-01-30T20:46:23.810Z,10.10
2023-01-30T20:48:54.550Z,10.08
2023-01-30T20:51:24.885Z,10.06
2023-01-30T20:53:56.135Z,13.06
2023-01-30T20:56:26.163Z,15.42
2023-01-30T20:58:54.009Z,16.59
2023-01-30T21:01:25.054Z,17.30
2023-01-30T21:03:54.657Z,17.66
2023-01-30T21:06:41.962Z,16.32
2023-01-30T21:09:14.633Z,14.87
2023-01-30T21:11:41.881Z,13.95
2023-01-30T21:14:08.986Z,13.28
2023-01-30T21:16:38.255Z,12.65
2023-01-30T21:19:11.135Z,12.16
2023-01-30T21:21:45.709Z,11.74
2023-01-30T21:24:17.531Z,11.42
2023-01-30T21:26:46.900Z,11.15
2023-01-30T21:29:18.389Z,10.96
2023-01-30T21:31:46.729Z,10.86
2023-01-30T21:34:15.327Z,10.67
2023-01-30T21:36:42.699Z,10.63
2023-01-30T21:39:15.125Z,10.59
2023-01-30T21:41:46.145Z,10.46
2023-01-30T21:44:14.524Z,10.40
2023-01-30T21:46:45.106Z,10.30
2023-01-30T21:49:13.283Z,10.17
2023-01-30T21:51:41.728Z,10.14
2023-01-30T21:54:09.726Z,10.07
2023-01-30T21:56:40.111Z,10.02
2023-01-30T21:59:10.222Z,9.92
2023-01-30T22:01:41.995Z,9.87
2023-01-30T22:04:11.785Z,9.80
2023-01-30T22:06:39.071Z,9.72
2023-01-30T22:09:06.702Z,9.73
2023-01-30T22:11:36.454Z,9.70
2023-01-30T22:14:05.303Z,9.67
2023-01-30T22:16:33.862Z,9.68
2023-01-30T22:19:03.758Z,9.67
2023-01-30T22:21:33.879Z,9.64
2023-01-30T22:24:02.763Z,9.68
2023-01-30T22:26:30.556Z,9.61
2023-01-30T22:29:00.051Z,9.68
2023-01-30T22:31:31.564Z,9.71
2023-01-30T22:33:58.872Z,9.73
2023-01-30T22:36:28.588Z,9.82
2023-01-30T22:38:56.297Z,9.85
2023-01-30T22:41:25.186Z,9.74
2023-01-30T22:43:54.734Z,9.66
2023-01-30T22:46:23.826Z,9.63
2023-01-30T22:48:53.044Z,9.56
2023-01-30T22:51:22.888Z,9.50
2023-01-30T22:53:52.882Z,9.53
2023-01-30T22:56:22.830Z,9.50
2023-01-30T22:58:50.543Z,9.40
2023-01-30T23:01:20.092Z,9.41
2023-01-30T23:03:49.213Z,9.38
2023-01-30T23:06:18.161Z,9.41
2023-01-30T23:08:47.785Z,9.38
2023-01-30T23:11:17.827Z,9.38
2023-01-30T23:13:47.104Z,9.43
2023-01-30T23:16:16.322Z,9.51
2023-01-30T23:18:43.576Z,9.54
2023-01-30T23:21:12.301Z,9.59
2023-01-30T23:23:41.601Z,9.65
2023-01-30T23:26:09.522Z,9.67
2023-01-30T23:28:37.775Z,9.71
2023-01-30T23:31:10.689Z,9.75
2023-01-30T23:33:38.824Z,9.76
2023-01-30T23:36:10.353Z,9.87
2023-01-30T23:38:37.882Z,9.91
2023-01-30T23:41:09.835Z,9.87
2023-01-30T23:43:37.961Z,9.83
2023-01-30T23:46:14.479Z,9.86
2023-01-30T23:48:42.061Z,9.86
2023-01-30T23:51:09.761Z,9.82
2023-01-30T23:53:37.423Z,9.88
2023-01-30T23:56:08.326Z,9.88
2023-01-30T23:58:36.504Z,9.78
